Terminal Aerodrome Forecast
Issued by NWS Bismarck, ND

Home | Current Version | Previous Version | Graphics & Text | Print | Product List | Glossary On
Versions: 1 2 3 4 5 6 7 8 9 10 11 12 13 14 15 16 17 18 19 20 21 22 23 24 25 26 27 28
000
FTUS43 KBIS 270520
TAFBIS
TAF
KBIS 270520Z 2706/2806 35005KT P6SM SCT150
     FM271100 05003KT P6SM VCFG SCT010
     FM271800 06006KT P6SM BKN060
     FM272100 05005KT P6SM VCSH BKN060
     FM280200 02005KT P6SM SCT080=

USA.gov is the U.S. government's official web portal to all federal, state and local government web resources and services.